createdAt,value
2022-10-02T00:00:37.555Z,11.20
2022-10-02T00:03:14.932Z,14.43
2022-10-02T00:05:50.149Z,8.40
2022-10-02T00:08:24.476Z,14.33
2022-10-02T00:10:57.790Z,18.50
2022-10-02T00:13:37.397Z,11.87
2022-10-02T00:16:10.170Z,14.10
2022-10-02T00:18:42.141Z,12.93
2022-10-02T00:21:25.569Z,14.07
2022-10-02T00:23:59.288Z,16.73
2022-10-02T00:26:34.244Z,14.10
2022-10-02T00:29:21.390Z,9.67
2022-10-02T00:32:00.575Z,14.67
2022-10-02T00:34:39.721Z,13.13
2022-10-02T00:37:22.432Z,18.17
2022-10-02T00:40:03.111Z,18.43
2022-10-02T00:43:11.168Z,16.63
2022-10-02T00:46:01.892Z,12.20
2022-10-02T00:48:50.128Z,15.60
2022-10-02T00:51:41.842Z,12.13
2022-10-02T00:54:47.803Z,12.70
2022-10-02T00:57:29.182Z,22.00
2022-10-02T01:00:08.069Z,20.40
2022-10-02T01:03:00.778Z,26.90
2022-10-02T01:05:30.863Z,15.83
2022-10-02T01:08:00.859Z,20.97
2022-10-02T01:10:32.464Z,17.73
2022-10-02T01:13:02.200Z,14.70
2022-10-02T01:15:36.032Z,17.27
2022-10-02T01:18:10.210Z,21.13
2022-10-02T01:20:43.176Z,12.93
2022-10-02T01:23:25.664Z,22.80
2022-10-02T01:25:58.120Z,22.43
2022-10-02T01:28:28.317Z,25.50
2022-10-02T01:31:03.934Z,22.03
2022-10-02T01:33:34.506Z,23.93
2022-10-02T01:36:04.633Z,23.83
2022-10-02T01:38:34.764Z,19.70
2022-10-02T01:41:07.606Z,24.03
2022-10-02T01:43:40.125Z,21.53
2022-10-02T01:46:27.442Z,44.60
2022-10-02T01:49:09.062Z,19.87
2022-10-02T01:51:56.807Z,18.63
2022-10-02T01:54:36.425Z,26.37
2022-10-02T01:57:15.535Z,25.60
2022-10-02T01:59:56.579Z,25.13
2022-10-02T02:02:32.525Z,27.27
2022-10-02T02:05:11.141Z,30.43
2022-10-02T02:07:50.434Z,27.27
2022-10-02T02:10:26.391Z,32.13
2022-10-02T02:13:05.562Z,22.63
2022-10-02T02:15:42.801Z,22.57
2022-10-02T02:18:19.830Z,29.53
2022-10-02T02:20:53.517Z,36.20
2022-10-02T02:23:29.107Z,24.73
2022-10-02T02:26:03.688Z,30.40
2022-10-02T02:28:38.064Z,27.50
2022-10-02T02:31:10.424Z,29.30
2022-10-02T02:33:45.383Z,33.57
2022-10-02T02:36:21.001Z,39.50
2022-10-02T02:38:54.804Z,36.07
2022-10-02T02:41:30.435Z,33.90
2022-10-02T02:44:05.810Z,46.20
2022-10-02T02:47:01.527Z,40.77
2022-10-02T02:49:37.741Z,35.27
2022-10-02T02:52:13.228Z,37.77
2022-10-02T02:54:48.809Z,42.60
2022-10-02T02:57:21.244Z,41.27
2022-10-02T02:59:56.422Z,41.73
2022-10-02T03:02:26.264Z,45.23
2022-10-02T03:04:56.105Z,47.70
2022-10-02T03:07:25.909Z,45.27
2022-10-02T03:10:04.883Z,38.30
2022-10-02T03:12:51.048Z,50.07
2022-10-02T03:15:32.710Z,47.73
2022-10-02T03:18:20.219Z,36.37
2022-10-02T03:21:00.086Z,38.13
2022-10-02T03:23:35.651Z,38.90
2022-10-02T03:26:11.219Z,45.53
2022-10-02T03:28:57.064Z,40.47
2022-10-02T03:31:33.898Z,36.00
2022-10-02T03:34:06.105Z,35.07
2022-10-02T03:36:36.833Z,45.27
2022-10-02T03:39:25.916Z,38.13
2022-10-02T03:41:57.119Z,35.03
2022-10-02T03:44:27.373Z,44.43
2022-10-02T03:46:59.657Z,31.77
2022-10-02T03:49:29.341Z,37.73
2022-10-02T03:51:59.085Z,45.17
2022-10-02T03:54:33.610Z,51.03
2022-10-02T03:57:08.147Z,49.40
2022-10-02T03:59:47.429Z,48.50
2022-10-02T04:02:29.948Z,43.83
2022-10-02T04:05:05.617Z,58.03
2022-10-02T04:07:40.960Z,45.37
2022-10-02T04:10:22.033Z,50.73
2022-10-02T04:12:54.805Z,51.33
2022-10-02T04:15:30.779Z,47.07
2022-10-02T04:18:09.651Z,46.73
2022-10-02T04:20:46.579Z,38.03
2022-10-02T04:23:23.775Z,52.27
2022-10-02T04:25:58.193Z,40.27
2022-10-02T04:28:33.652Z,41.97
2022-10-02T04:31:04.173Z,44.47
2022-10-02T04:33:38.456Z,44.23
2022-10-02T04:36:22.479Z,34.13
2022-10-02T04:39:07.124Z,49.90
2022-10-02T04:42:00.248Z,48.97
2022-10-02T04:44:43.111Z,45.03
2022-10-02T04:47:31.998Z,41.97
2022-10-02T04:50:21.837Z,42.37
2022-10-02T04:53:12.197Z,43.67
2022-10-02T04:55:54.826Z,44.10
2022-10-02T04:58:39.002Z,48.17
2022-10-02T05:01:16.694Z,38.50
2022-10-02T05:04:21.926Z,35.27
2022-10-02T05:07:08.502Z,50.23
2022-10-02T05:09:44.335Z,42.70
2022-10-02T05:12:31.755Z,40.93
2022-10-02T05:15:18.803Z,43.13
2022-10-02T05:18:03.689Z,34.80
2022-10-02T05:21:10.219Z,41.43
2022-10-02T05:23:53.117Z,53.63
2022-10-02T05:26:47.031Z,39.43
2022-10-02T05:29:39.339Z,32.30
2022-10-02T05:32:21.535Z,50.53
2022-10-02T05:35:06.651Z,38.23
2022-10-02T05:37:50.199Z,37.17
2022-10-02T05:40:29.685Z,39.17
2022-10-02T05:43:08.958Z,31.43
2022-10-02T05:45:41.942Z,34.93
2022-10-02T05:48:20.264Z,37.30
2022-10-02T05:50:55.922Z,31.80
2022-10-02T05:53:36.750Z,37.97
2022-10-02T05:56:16.775Z,30.53
2022-10-02T05:58:53.040Z,29.03
2022-10-02T06:01:28.897Z,33.77
2022-10-02T06:04:05.095Z,34.80
2022-10-02T06:06:39.694Z,31.50
2022-10-02T06:09:20.126Z,30.23
2022-10-02T06:11:55.794Z,25.67
2022-10-02T06:14:30.528Z,29.63
2022-10-02T06:17:04.280Z,36.83
2022-10-02T06:19:39.952Z,33.83
2022-10-02T06:22:15.877Z,25.90
2022-10-02T06:24:53.859Z,27.73
2022-10-02T06:27:35.275Z,38.63
2022-10-02T06:30:08.284Z,33.53
2022-10-02T06:32:46.466Z,29.27
2022-10-02T06:35:18.491Z,36.67
2022-10-02T06:38:10.521Z,37.80
2022-10-02T06:40:50.801Z,37.80
2022-10-02T06:43:36.829Z,31.27
2022-10-02T06:46:22.956Z,33.33
2022-10-02T06:48:59.368Z,34.00
2022-10-02T06:51:42.020Z,32.77
2022-10-02T06:54:35.984Z,32.60
2022-10-02T06:57:24.663Z,35.07
2022-10-02T07:00:12.215Z,32.90
2022-10-02T07:03:07.705Z,33.93
2022-10-02T07:05:56.016Z,30.50
2022-10-02T07:08:40.148Z,30.33
2022-10-02T07:11:18.507Z,34.83
2022-10-02T07:14:07.155Z,36.70
2022-10-02T07:17:05.232Z,28.43
2022-10-02T07:19:55.407Z,35.20
2022-10-02T07:22:44.975Z,30.53
2022-10-02T07:25:31.647Z,26.97
2022-10-02T07:28:11.647Z,34.67
2022-10-02T07:30:52.203Z,31.27
2022-10-02T07:33:34.128Z,37.13
2022-10-02T07:36:12.372Z,33.03
2022-10-02T07:38:57.986Z,36.37
2022-10-02T07:42:03.909Z,28.17
2022-10-02T07:44:57.512Z,25.53
2022-10-02T07:47:45.007Z,33.20
2022-10-02T07:50:25.371Z,35.43
2022-10-02T07:53:05.757Z,35.10
2022-10-02T07:55:41.916Z,27.13
2022-10-02T07:58:16.835Z,39.53
2022-10-02T08:00:51.703Z,33.83
2022-10-02T08:03:27.122Z,29.73
2022-10-02T08:06:01.688Z,29.77
2022-10-02T08:08:41.146Z,25.10
2022-10-02T08:11:16.446Z,27.07
2022-10-02T08:13:52.638Z,31.13
2022-10-02T08:16:26.462Z,38.50
2022-10-02T08:19:02.640Z,33.73
2022-10-02T08:21:41.635Z,28.53
2022-10-02T08:24:16.983Z,26.57
2022-10-02T08:26:54.573Z,24.43
2022-10-02T08:29:30.884Z,27.93
2022-10-02T08:32:01.280Z,17.77
